sensor_id;sensor_type;location;lat;lon;timestamp;P1;durP1;ratioP1;P2;durP2;ratioP2
9789;SDS011;4934;50.852;8.098;2023-04-28T00:01:41;15.35;;;6.05;;
9789;SDS011;4934;50.852;8.098;2023-04-28T00:04:07;14.95;;;6.25;;
9789;SDS011;4934;50.852;8.098;2023-04-28T00:06:32;12.32;;;6.63;;
9789;SDS011;4934;50.852;8.098;2023-04-28T00:08:58;18.08;;;6.20;;
9789;SDS011;4934;50.852;8.098;2023-04-28T00:11:24;15.93;;;6.35;;
9789;SDS011;4934;50.852;8.098;2023-04-28T00:13:49;12.73;;;6.22;;
9789;SDS011;4934;50.852;8.098;2023-04-28T00:16:15;10.32;;;6.30;;
9789;SDS011;4934;50.852;8.098;2023-04-28T00:18:41;12.15;;;6.03;;
9789;SDS011;4934;50.852;8.098;2023-04-28T00:21:06;14.50;;;6.10;;
9789;SDS011;4934;50.852;8.098;2023-04-28T00:23:32;13.63;;;6.50;;
9789;SDS011;4934;50.852;8.098;2023-04-28T00:25:58;14.43;;;5.97;;
9789;SDS011;4934;50.852;8.098;2023-04-28T00:28:23;17.50;;;6.32;;
9789;SDS011;4934;50.852;8.098;2023-04-28T00:30:49;11.80;;;6.20;;
9789;SDS011;4934;50.852;8.098;2023-04-28T00:33:15;13.50;;;5.95;;
9789;SDS011;4934;50.852;8.098;2023-04-28T00:35:41;21.40;;;6.25;;
9789;SDS011;4934;50.852;8.098;2023-04-28T00:38:07;10.90;;;5.65;;
9789;SDS011;4934;50.852;8.098;2023-04-28T00:40:33;14.82;;;6.28;;
9789;SDS011;4934;50.852;8.098;2023-04-28T00:43:02;12.40;;;6.75;;
9789;SDS011;4934;50.852;8.098;2023-04-28T00:45:29;15.25;;;5.95;;
9789;SDS011;4934;50.852;8.098;2023-04-28T00:47:55;15.05;;;6.60;;
9789;SDS011;4934;50.852;8.098;2023-04-28T00:50:21;13.38;;;6.35;;
9789;SDS011;4934;50.852;8.098;2023-04-28T00:52:47;13.82;;;7.22;;
9789;SDS011;4934;50.852;8.098;2023-04-28T00:55:14;17.17;;;6.20;;
9789;SDS011;4934;50.852;8.098;2023-04-28T00:57:40;12.30;;;6.57;;
9789;SDS011;4934;50.852;8.098;2023-04-28T01:00:07;16.10;;;6.22;;
9789;SDS011;4934;50.852;8.098;2023-04-28T01:02:34;13.90;;;6.18;;
9789;SDS011;4934;50.852;8.098;2023-04-28T01:05:00;12.50;;;6.40;;
9789;SDS011;4934;50.852;8.098;2023-04-28T01:07:26;15.35;;;6.25;;
9789;SDS011;4934;50.852;8.098;2023-04-28T01:09:52;17.23;;;5.95;;
9789;SDS011;4934;50.852;8.098;2023-04-28T01:12:18;13.45;;;6.60;;
9789;SDS011;4934;50.852;8.098;2023-04-28T01:14:44;11.77;;;5.90;;
9789;SDS011;4934;50.852;8.098;2023-04-28T01:17:10;14.70;;;6.93;;
9789;SDS011;4934;50.852;8.098;2023-04-28T01:19:36;12.32;;;5.93;;
9789;SDS011;4934;50.852;8.098;2023-04-28T01:22:02;11.73;;;5.95;;
9789;SDS011;4934;50.852;8.098;2023-04-28T01:24:28;12.93;;;6.25;;
9789;SDS011;4934;50.852;8.098;2023-04-28T01:26:54;13.20;;;6.70;;
9789;SDS011;4934;50.852;8.098;2023-04-28T01:29:20;17.02;;;6.70;;
9789;SDS011;4934;50.852;8.098;2023-04-28T01:31:46;14.68;;;6.60;;
9789;SDS011;4934;50.852;8.098;2023-04-28T01:34:11;15.93;;;7.60;;
9789;SDS011;4934;50.852;8.098;2023-04-28T01:36:37;11.57;;;6.45;;
9789;SDS011;4934;50.852;8.098;2023-04-28T01:39:03;11.27;;;6.60;;
9789;SDS011;4934;50.852;8.098;2023-04-28T01:41:28;16.52;;;6.35;;
9789;SDS011;4934;50.852;8.098;2023-04-28T01:43:54;17.27;;;6.57;;
9789;SDS011;4934;50.852;8.098;2023-04-28T01:46:20;14.50;;;6.32;;
9789;SDS011;4934;50.852;8.098;2023-04-28T01:48:46;13.25;;;6.40;;
9789;SDS011;4934;50.852;8.098;2023-04-28T01:51:11;12.40;;;6.30;;
9789;SDS011;4934;50.852;8.098;2023-04-28T01:53:37;14.63;;;6.13;;
9789;SDS011;4934;50.852;8.098;2023-04-28T01:56:04;16.27;;;6.28;;
9789;SDS011;4934;50.852;8.098;2023-04-28T01:58:29;11.15;;;6.63;;
9789;SDS011;4934;50.852;8.098;2023-04-28T02:00:55;10.52;;;6.03;;
9789;SDS011;4934;50.852;8.098;2023-04-28T02:03:21;13.00;;;5.72;;
9789;SDS011;4934;50.852;8.098;2023-04-28T02:05:46;13.02;;;6.57;;
9789;SDS011;4934;50.852;8.098;2023-04-28T02:08:12;19.80;;;8.88;;
9789;SDS011;4934;50.852;8.098;2023-04-28T02:10:37;16.58;;;7.70;;
9789;SDS011;4934;50.852;8.098;2023-04-28T02:13:03;14.38;;;7.13;;
9789;SDS011;4934;50.852;8.098;2023-04-28T02:15:29;18.55;;;8.13;;
9789;SDS011;4934;50.852;8.098;2023-04-28T02:17:54;13.75;;;7.30;;
9789;SDS011;4934;50.852;8.098;2023-04-28T02:20:20;10.73;;;6.78;;
9789;SDS011;4934;50.852;8.098;2023-04-28T02:22:45;14.90;;;7.75;;
9789;SDS011;4934;50.852;8.098;2023-04-28T02:25:11;16.92;;;6.95;;
9789;SDS011;4934;50.852;8.098;2023-04-28T02:27:37;20.05;;;8.45;;
9789;SDS011;4934;50.852;8.098;2023-04-28T02:30:03;18.38;;;8.20;;
9789;SDS011;4934;50.852;8.098;2023-04-28T02:32:29;14.00;;;7.68;;
9789;SDS011;4934;50.852;8.098;2023-04-28T02:34:55;13.65;;;7.55;;
9789;SDS011;4934;50.852;8.098;2023-04-28T02:37:21;18.50;;;8.45;;
9789;SDS011;4934;50.852;8.098;2023-04-28T02:39:46;16.52;;;7.35;;
9789;SDS011;4934;50.852;8.098;2023-04-28T02:42:12;16.63;;;8.13;;
9789;SDS011;4934;50.852;8.098;2023-04-28T02:44:39;15.30;;;8.88;;
9789;SDS011;4934;50.852;8.098;2023-04-28T02:47:05;17.92;;;8.65;;
9789;SDS011;4934;50.852;8.098;2023-04-28T02:49:31;20.02;;;9.90;;
9789;SDS011;4934;50.852;8.098;2023-04-28T02:51:57;16.33;;;8.00;;
9789;SDS011;4934;50.852;8.098;2023-04-28T02:54:22;14.10;;;7.85;;
9789;SDS011;4934;50.852;8.098;2023-04-28T02:59:21;20.92;;;9.23;;
9789;SDS011;4934;50.852;8.098;2023-04-28T03:01:47;18.67;;;8.65;;
9789;SDS011;4934;50.852;8.098;2023-04-28T03:04:14;16.15;;;7.82;;
9789;SDS011;4934;50.852;8.098;2023-04-28T03:06:40;21.73;;;9.85;;
9789;SDS011;4934;50.852;8.098;2023-04-28T03:09:06;19.20;;;10.30;;
9789;SDS011;4934;50.852;8.098;2023-04-28T03:11:32;19.92;;;9.25;;
9789;SDS011;4934;50.852;8.098;2023-04-28T03:13:58;19.25;;;9.18;;
9789;SDS011;4934;50.852;8.098;2023-04-28T03:16:24;18.98;;;9.98;;
9789;SDS011;4934;50.852;8.098;2023-04-28T03:18:50;16.67;;;8.82;;
9789;SDS011;4934;50.852;8.098;2023-04-28T03:21:15;17.58;;;8.82;;
9789;SDS011;4934;50.852;8.098;2023-04-28T03:23:41;21.75;;;9.25;;
9789;SDS011;4934;50.852;8.098;2023-04-28T03:26:06;18.48;;;9.55;;
9789;SDS011;4934;50.852;8.098;2023-04-28T03:28:32;25.25;;;10.25;;
9789;SDS011;4934;50.852;8.098;2023-04-28T03:30:58;17.38;;;8.80;;
9789;SDS011;4934;50.852;8.098;2023-04-28T03:33:23;20.13;;;9.90;;
9789;SDS011;4934;50.852;8.098;2023-04-28T03:35:49;18.77;;;10.25;;
9789;SDS011;4934;50.852;8.098;2023-04-28T03:38:15;16.08;;;8.95;;
9789;SDS011;4934;50.852;8.098;2023-04-28T03:40:40;20.63;;;9.55;;
9789;SDS011;4934;50.852;8.098;2023-04-28T03:43:06;17.95;;;9.52;;
9789;SDS011;4934;50.852;8.098;2023-04-28T03:45:32;21.83;;;10.43;;
9789;SDS011;4934;50.852;8.098;2023-04-28T03:47:57;29.48;;;10.70;;
9789;SDS011;4934;50.852;8.098;2023-04-28T03:50:23;25.65;;;10.55;;
9789;SDS011;4934;50.852;8.098;2023-04-28T03:52:49;20.98;;;10.35;;
9789;SDS011;4934;50.852;8.098;2023-04-28T03:55:14;18.35;;;10.35;;
9789;SDS011;4934;50.852;8.098;2023-04-28T03:57:40;18.08;;;10.30;;
9789;SDS011;4934;50.852;8.098;2023-04-28T04:00:06;22.98;;;10.63;;
9789;SDS011;4934;50.852;8.098;2023-04-28T04:02:32;20.92;;;10.00;;
9789;SDS011;4934;50.852;8.098;2023-04-28T04:04:58;20.65;;;10.43;;
9789;SDS011;4934;50.852;8.098;2023-04-28T04:07:23;23.13;;;10.23;;
9789;SDS011;4934;50.852;8.098;2023-04-28T04:09:49;17.80;;;9.63;;
9789;SDS011;4934;50.852;8.098;2023-04-28T04:12:15;17.83;;;10.45;;
9789;SDS011;4934;50.852;8.098;2023-04-28T04:14:40;24.20;;;11.18;;
9789;SDS011;4934;50.852;8.098;2023-04-28T04:17:06;23.55;;;9.95;;
9789;SDS011;4934;50.852;8.098;2023-04-28T04:19:31;23.65;;;10.48;;
9789;SDS011;4934;50.852;8.098;2023-04-28T04:21:57;19.75;;;10.35;;
9789;SDS011;4934;50.852;8.098;2023-04-28T04:24:22;23.75;;;10.93;;
9789;SDS011;4934;50.852;8.098;2023-04-28T04:26:48;16.98;;;9.52;;
9789;SDS011;4934;50.852;8.098;2023-04-28T04:29:14;19.50;;;9.98;;
9789;SDS011;4934;50.852;8.098;2023-04-28T04:31:39;19.48;;;10.05;;
9789;SDS011;4934;50.852;8.098;2023-04-28T04:34:05;21.85;;;10.57;;
9789;SDS011;4934;50.852;8.098;2023-04-28T04:36:31;18.15;;;10.00;;
9789;SDS011;4934;50.852;8.098;2023-04-28T04:38:57;29.50;;;11.98;;
9789;SDS011;4934;50.852;8.098;2023-04-28T04:41:24;23.55;;;11.15;;
9789;SDS011;4934;50.852;8.098;2023-04-28T04:43:51;21.17;;;9.93;;
9789;SDS011;4934;50.852;8.098;2023-04-28T04:46:16;21.75;;;10.38;;
9789;SDS011;4934;50.852;8.098;2023-04-28T04:48:42;25.02;;;11.50;;
9789;SDS011;4934;50.852;8.098;2023-04-28T04:51:08;22.90;;;10.98;;
9789;SDS011;4934;50.852;8.098;2023-04-28T04:53:33;21.63;;;11.27;;
9789;SDS011;4934;50.852;8.098;2023-04-28T04:55:59;21.65;;;11.95;;
9789;SDS011;4934;50.852;8.098;2023-04-28T04:58:25;23.25;;;11.50;;
9789;SDS011;4934;50.852;8.098;2023-04-28T05:00:51;21.17;;;10.98;;
9789;SDS011;4934;50.852;8.098;2023-04-28T05:03:17;22.33;;;12.10;;
9789;SDS011;4934;50.852;8.098;2023-04-28T05:05:42;28.50;;;11.85;;
9789;SDS011;4934;50.852;8.098;2023-04-28T05:08:09;22.60;;;11.57;;
9789;SDS011;4934;50.852;8.098;2023-04-28T05:10:35;23.52;;;11.27;;
9789;SDS011;4934;50.852;8.098;2023-04-28T05:13:01;23.38;;;11.90;;
9789;SDS011;4934;50.852;8.098;2023-04-28T05:15:27;22.52;;;11.00;;
9789;SDS011;4934;50.852;8.098;2023-04-28T05:17:53;28.23;;;11.82;;
9789;SDS011;4934;50.852;8.098;2023-04-28T05:20:18;23.08;;;11.35;;
9789;SDS011;4934;50.852;8.098;2023-04-28T05:22:44;23.50;;;12.65;;
9789;SDS011;4934;50.852;8.098;2023-04-28T05:25:10;23.90;;;11.95;;
9789;SDS011;4934;50.852;8.098;2023-04-28T05:27:35;24.55;;;11.77;;
9789;SDS011;4934;50.852;8.098;2023-04-28T05:30:03;26.67;;;13.13;;
9789;SDS011;4934;50.852;8.098;2023-04-28T05:32:30;25.25;;;11.60;;
9789;SDS011;4934;50.852;8.098;2023-04-28T05:34:56;22.95;;;11.93;;
9789;SDS011;4934;50.852;8.098;2023-04-28T05:37:21;21.77;;;10.75;;
9789;SDS011;4934;50.852;8.098;2023-04-28T05:39:47;21.30;;;12.30;;
9789;SDS011;4934;50.852;8.098;2023-04-28T05:42:12;19.75;;;10.35;;
9789;SDS011;4934;50.852;8.098;2023-04-28T05:44:38;24.58;;;13.65;;
9789;SDS011;4934;50.852;8.098;2023-04-28T05:47:03;35.95;;;23.25;;
9789;SDS011;4934;50.852;8.098;2023-04-28T05:49:29;39.38;;;21.38;;
9789;SDS011;4934;50.852;8.098;2023-04-28T05:51:55;27.42;;;16.23;;
9789;SDS011;4934;50.852;8.098;2023-04-28T05:54:20;25.48;;;13.52;;
9789;SDS011;4934;50.852;8.098;2023-04-28T05:56:46;24.27;;;12.85;;
9789;SDS011;4934;50.852;8.098;2023-04-28T05:59:11;27.10;;;14.43;;
9789;SDS011;4934;50.852;8.098;2023-04-28T06:01:37;22.48;;;12.23;;
9789;SDS011;4934;50.852;8.098;2023-04-28T06:04:03;22.70;;;11.60;;
9789;SDS011;4934;50.852;8.098;2023-04-28T06:06:28;18.45;;;11.40;;
9789;SDS011;4934;50.852;8.098;2023-04-28T06:08:54;20.58;;;11.30;;
9789;SDS011;4934;50.852;8.098;2023-04-28T06:11:20;21.83;;;12.23;;
9789;SDS011;4934;50.852;8.098;2023-04-28T06:13:46;25.15;;;12.68;;
9789;SDS011;4934;50.852;8.098;2023-04-28T06:16:13;24.85;;;12.20;;
9789;SDS011;4934;50.852;8.098;2023-04-28T06:18:39;24.08;;;11.82;;
9789;SDS011;4934;50.852;8.098;2023-04-28T06:21:05;21.30;;;10.98;;
9789;SDS011;4934;50.852;8.098;2023-04-28T06:23:30;23.98;;;11.50;;
9789;SDS011;4934;50.852;8.098;2023-04-28T06:25:56;26.77;;;11.20;;
9789;SDS011;4934;50.852;8.098;2023-04-28T06:28:22;25.45;;;12.25;;
9789;SDS011;4934;50.852;8.098;2023-04-28T06:30:47;23.15;;;11.68;;
9789;SDS011;4934;50.852;8.098;2023-04-28T06:33:13;21.50;;;11.30;;
9789;SDS011;4934;50.852;8.098;2023-04-28T06:35:38;24.90;;;13.13;;
9789;SDS011;4934;50.852;8.098;2023-04-28T06:38:05;23.85;;;10.88;;
9789;SDS011;4934;50.852;8.098;2023-04-28T06:40:30;20.23;;;11.18;;
9789;SDS011;4934;50.852;8.098;2023-04-28T06:42:56;19.83;;;11.38;;
9789;SDS011;4934;50.852;8.098;2023-04-28T06:45:21;26.23;;;12.32;;
9789;SDS011;4934;50.852;8.098;2023-04-28T06:47:47;24.90;;;12.10;;
9789;SDS011;4934;50.852;8.098;2023-04-28T06:50:13;26.55;;;11.80;;
9789;SDS011;4934;50.852;8.098;2023-04-28T06:52:38;26.60;;;13.93;;
9789;SDS011;4934;50.852;8.098;2023-04-28T06:55:07;23.42;;;12.48;;
9789;SDS011;4934;50.852;8.098;2023-04-28T06:57:33;22.98;;;11.45;;
9789;SDS011;4934;50.852;8.098;2023-04-28T06:59:59;26.35;;;11.52;;
9789;SDS011;4934;50.852;8.098;2023-04-28T07:02:25;25.08;;;11.15;;
9789;SDS011;4934;50.852;8.098;2023-04-28T07:04:51;24.70;;;11.05;;
9789;SDS011;4934;50.852;8.098;2023-04-28T07:07:16;23.58;;;11.07;;
9789;SDS011;4934;50.852;8.098;2023-04-28T07:09:42;20.55;;;10.88;;
9789;SDS011;4934;50.852;8.098;2023-04-28T07:12:08;19.45;;;10.40;;
9789;SDS011;4934;50.852;8.098;2023-04-28T07:14:33;20.58;;;11.65;;
9789;SDS011;4934;50.852;8.098;2023-04-28T07:16:59;31.00;;;11.00;;
9789;SDS011;4934;50.852;8.098;2023-04-28T07:19:24;20.10;;;11.05;;
9789;SDS011;4934;50.852;8.098;2023-04-28T07:21:50;24.08;;;10.07;;
9789;SDS011;4934;50.852;8.098;2023-04-28T07:24:16;19.10;;;10.77;;
9789;SDS011;4934;50.852;8.098;2023-04-28T07:26:41;19.48;;;10.60;;
9789;SDS011;4934;50.852;8.098;2023-04-28T07:29:07;24.25;;;11.38;;
9789;SDS011;4934;50.852;8.098;2023-04-28T07:31:33;25.10;;;10.15;;
9789;SDS011;4934;50.852;8.098;2023-04-28T07:33:59;23.30;;;10.63;;
9789;SDS011;4934;50.852;8.098;2023-04-28T07:36:24;20.63;;;10.73;;
9789;SDS011;4934;50.852;8.098;2023-04-28T07:38:50;19.73;;;11.00;;
9789;SDS011;4934;50.852;8.098;2023-04-28T07:41:16;17.80;;;10.52;;
9789;SDS011;4934;50.852;8.098;2023-04-28T07:43:43;22.10;;;10.82;;
9789;SDS011;4934;50.852;8.098;2023-04-28T07:46:08;19.95;;;9.45;;
9789;SDS011;4934;50.852;8.098;2023-04-28T07:48:34;21.25;;;11.07;;
9789;SDS011;4934;50.852;8.098;2023-04-28T07:51:00;22.73;;;10.25;;
9789;SDS011;4934;50.852;8.098;2023-04-28T07:53:26;20.60;;;9.77;;
9789;SDS011;4934;50.852;8.098;2023-04-28T07:55:52;24.27;;;10.63;;
9789;SDS011;4934;50.852;8.098;2023-04-28T07:58:19;16.73;;;10.32;;
9789;SDS011;4934;50.852;8.098;2023-04-28T08:00:44;20.63;;;10.50;;
9789;SDS011;4934;50.852;8.098;2023-04-28T08:03:10;19.92;;;11.52;;
9789;SDS011;4934;50.852;8.098;2023-04-28T08:05:37;20.00;;;10.43;;
9789;SDS011;4934;50.852;8.098;2023-04-28T08:08:03;22.40;;;10.82;;
9789;SDS011;4934;50.852;8.098;2023-04-28T08:10:28;21.77;;;11.40;;
9789;SDS011;4934;50.852;8.098;2023-04-28T08:12:54;19.50;;;10.60;;
9789;SDS011;4934;50.852;8.098;2023-04-28T08:15:19;19.05;;;10.38;;
9789;SDS011;4934;50.852;8.098;2023-04-28T08:17:45;22.30;;;10.88;;
9789;SDS011;4934;50.852;8.098;2023-04-28T08:20:11;23.60;;;10.68;;
9789;SDS011;4934;50.852;8.098;2023-04-28T08:22:39;16.15;;;10.82;;
9789;SDS011;4934;50.852;8.098;2023-04-28T08:25:05;20.45;;;11.05;;
9789;SDS011;4934;50.852;8.098;2023-04-28T08:27:32;35.60;;;11.68;;
9789;SDS011;4934;50.852;8.098;2023-04-28T08:29:58;21.80;;;10.80;;
9789;SDS011;4934;50.852;8.098;2023-04-28T08:32:24;18.95;;;10.63;;
9789;SDS011;4934;50.852;8.098;2023-04-28T08:34:49;17.80;;;10.00;;
9789;SDS011;4934;50.852;8.098;2023-04-28T08:37:15;19.00;;;10.15;;
9789;SDS011;4934;50.852;8.098;2023-04-28T08:39:41;19.77;;;10.75;;
9789;SDS011;4934;50.852;8.098;2023-04-28T08:42:07;16.63;;;9.57;;
9789;SDS011;4934;50.852;8.098;2023-04-28T08:44:35;20.55;;;10.15;;
9789;SDS011;4934;50.852;8.098;2023-04-28T08:47:11;17.00;;;10.27;;
9789;SDS011;4934;50.852;8.098;2023-04-28T08:49:38;18.42;;;10.52;;
9789;SDS011;4934;50.852;8.098;2023-04-28T08:52:11;16.67;;;9.95;;
9789;SDS011;4934;50.852;8.098;2023-04-28T08:54:41;16.60;;;9.98;;
9789;SDS011;4934;50.852;8.098;2023-04-28T08:57:08;16.63;;;9.60;;
9789;SDS011;4934;50.852;8.098;2023-04-28T08:59:37;17.23;;;10.40;;
9789;SDS011;4934;50.852;8.098;2023-04-28T09:02:04;17.27;;;9.60;;
9789;SDS011;4934;50.852;8.098;2023-04-28T09:04:30;21.60;;;9.75;;
9789;SDS011;4934;50.852;8.098;2023-04-28T09:06:56;16.65;;;9.77;;
9789;SDS011;4934;50.852;8.098;2023-04-28T09:09:22;17.70;;;10.00;;
9789;SDS011;4934;50.852;8.098;2023-04-28T09:11:53;20.25;;;10.15;;
9789;SDS011;4934;50.852;8.098;2023-04-28T09:14:30;18.63;;;10.88;;
9789;SDS011;4934;50.852;8.098;2023-04-28T09:16:59;17.55;;;10.38;;
9789;SDS011;4934;50.852;8.098;2023-04-28T09:19:33;16.52;;;10.50;;
9789;SDS011;4934;50.852;8.098;2023-04-28T09:22:00;18.23;;;10.15;;
9789;SDS011;4934;50.852;8.098;2023-04-28T09:26:59;20.45;;;8.95;;
9789;SDS011;4934;50.852;8.098;2023-04-28T09:29:26;18.85;;;10.63;;
9789;SDS011;4934;50.852;8.098;2023-04-28T09:31:53;17.77;;;10.40;;
9789;SDS011;4934;50.852;8.098;2023-04-28T09:34:19;17.98;;;10.43;;
9789;SDS011;4934;50.852;8.098;2023-04-28T09:36:46;15.38;;;10.15;;
9789;SDS011;4934;50.852;8.098;2023-04-28T09:39:12;17.08;;;9.40;;
9789;SDS011;4934;50.852;8.098;2023-04-28T09:41:38;15.93;;;9.82;;
9789;SDS011;4934;50.852;8.098;2023-04-28T09:44:18;17.20;;;9.15;;
9789;SDS011;4934;50.852;8.098;2023-04-28T09:46:46;17.83;;;10.05;;
9789;SDS011;4934;50.852;8.098;2023-04-28T09:49:12;15.60;;;8.98;;
9789;SDS011;4934;50.852;8.098;2023-04-28T09:51:39;17.40;;;9.07;;
9789;SDS011;4934;50.852;8.098;2023-04-28T09:54:05;15.30;;;8.82;;
9789;SDS011;4934;50.852;8.098;2023-04-28T09:56:32;16.48;;;8.65;;
9789;SDS011;4934;50.852;8.098;2023-04-28T09:58:59;18.58;;;10.07;;
9789;SDS011;4934;50.852;8.098;2023-04-28T10:01:39;14.50;;;7.95;;
9789;SDS011;4934;50.852;8.098;2023-04-28T10:04:05;20.55;;;8.93;;
9789;SDS011;4934;50.852;8.098;2023-04-28T10:06:33;15.93;;;8.52;;
9789;SDS011;4934;50.852;8.098;2023-04-28T10:09:01;14.70;;;8.10;;
9789;SDS011;4934;50.852;8.098;2023-04-28T10:11:27;15.25;;;8.30;;
9789;SDS011;4934;50.852;8.098;2023-04-28T10:13:54;13.23;;;8.07;;
9789;SDS011;4934;50.852;8.098;2023-04-28T10:16:20;13.35;;;8.50;;
9789;SDS011;4934;50.852;8.098;2023-04-28T10:18:46;13.82;;;8.48;;
9789;SDS011;4934;50.852;8.098;2023-04-28T10:21:14;11.90;;;7.68;;
9789;SDS011;4934;50.852;8.098;2023-04-28T10:23:56;11.50;;;7.38;;
9789;SDS011;4934;50.852;8.098;2023-04-28T10:27:10;13.23;;;7.72;;
9789;SDS011;4934;50.852;8.098;2023-04-28T10:29:32;11.93;;;7.15;;
9789;SDS011;4934;50.852;8.098;2023-04-28T10:34:45;12.63;;;7.00;;
9789;SDS011;4934;50.852;8.098;2023-04-28T10:37:12;12.70;;;6.97;;
9789;SDS011;4934;50.852;8.098;2023-04-28T10:42:50;10.50;;;6.88;;
9789;SDS011;4934;50.852;8.098;2023-04-28T10:48:20;9.05;;;6.55;;
9789;SDS011;4934;50.852;8.098;2023-04-28T10:56:12;14.20;;;8.05;;
9789;SDS011;4934;50.852;8.098;2023-04-28T10:58:50;14.00;;;8.02;;
9789;SDS011;4934;50.852;8.098;2023-04-28T11:06:20;14.40;;;8.13;;
9789;SDS011;4934;50.852;8.098;2023-04-28T11:08:48;13.45;;;8.05;;
9789;SDS011;4934;50.852;8.098;2023-04-28T11:11:15;16.60;;;8.88;;
9789;SDS011;4934;50.852;8.098;2023-04-28T11:13:41;13.77;;;8.32;;
9789;SDS011;4934;50.852;8.098;2023-04-28T11:16:11;15.30;;;8.15;;
9789;SDS011;4934;50.852;8.098;2023-04-28T11:18:52;18.73;;;8.90;;
9789;SDS011;4934;50.852;8.098;2023-04-28T11:21:20;15.23;;;9.27;;
9789;SDS011;4934;50.852;8.098;2023-04-28T11:23:46;14.68;;;9.10;;
9789;SDS011;4934;50.852;8.098;2023-04-28T11:26:12;18.50;;;9.90;;
9789;SDS011;4934;50.852;8.098;2023-04-28T11:28:51;14.68;;;8.90;;
9789;SDS011;4934;50.852;8.098;2023-04-28T11:31:19;15.35;;;9.68;;
9789;SDS011;4934;50.852;8.098;2023-04-28T11:33:49;18.05;;;9.60;;
9789;SDS011;4934;50.852;8.098;2023-04-28T11:36:25;21.98;;;10.68;;
9789;SDS011;4934;50.852;8.098;2023-04-28T11:38:53;18.40;;;10.70;;
9789;SDS011;4934;50.852;8.098;2023-04-28T11:41:20;16.05;;;10.20;;
9789;SDS011;4934;50.852;8.098;2023-04-28T11:43:46;18.33;;;10.55;;
9789;SDS011;4934;50.852;8.098;2023-04-28T11:46:22;24.92;;;10.70;;
9789;SDS011;4934;50.852;8.098;2023-04-28T11:48:54;18.77;;;10.75;;
9789;SDS011;4934;50.852;8.098;2023-04-28T11:51:34;15.85;;;9.65;;
9789;SDS011;4934;50.852;8.098;2023-04-28T11:54:02;18.02;;;10.77;;
9789;SDS011;4934;50.852;8.098;2023-04-28T11:56:28;20.10;;;10.57;;
9789;SDS011;4934;50.852;8.098;2023-04-28T11:59:01;20.13;;;10.32;;
9789;SDS011;4934;50.852;8.098;2023-04-28T12:01:28;16.83;;;9.15;;
9789;SDS011;4934;50.852;8.098;2023-04-28T12:03:55;16.70;;;9.55;;
9789;SDS011;4934;50.852;8.098;2023-04-28T12:06:20;17.50;;;8.95;;
9789;SDS011;4934;50.852;8.098;2023-04-28T12:08:47;12.48;;;8.75;;
9789;SDS011;4934;50.852;8.098;2023-04-28T12:11:13;13.60;;;9.05;;
9789;SDS011;4934;50.852;8.098;2023-04-28T12:13:39;13.75;;;8.40;;
9789;SDS011;4934;50.852;8.098;2023-04-28T12:16:05;14.38;;;8.13;;
9789;SDS011;4934;50.852;8.098;2023-04-28T12:18:33;11.77;;;7.88;;
9789;SDS011;4934;50.852;8.098;2023-04-28T12:21:02;13.23;;;7.38;;
9789;SDS011;4934;50.852;8.098;2023-04-28T12:25:56;11.25;;;7.30;;
9789;SDS011;4934;50.852;8.098;2023-04-28T12:28:23;19.50;;;8.63;;
9789;SDS011;4934;50.852;8.098;2023-04-28T12:30:49;11.65;;;7.68;;
9789;SDS011;4934;50.852;8.098;2023-04-28T12:33:27;11.43;;;7.23;;
9789;SDS011;4934;50.852;8.098;2023-04-28T12:35:54;13.43;;;8.15;;
9789;SDS011;4934;50.852;8.098;2023-04-28T12:38:21;10.98;;;7.93;;
9789;SDS011;4934;50.852;8.098;2023-04-28T12:40:47;11.95;;;7.10;;
9789;SDS011;4934;50.852;8.098;2023-04-28T12:43:13;16.00;;;7.75;;
9789;SDS011;4934;50.852;8.098;2023-04-28T12:45:39;13.93;;;9.02;;
9789;SDS011;4934;50.852;8.098;2023-04-28T12:48:05;13.15;;;8.23;;
9789;SDS011;4934;50.852;8.098;2023-04-28T12:50:32;12.98;;;8.07;;
9789;SDS011;4934;50.852;8.098;2023-04-28T12:52:57;12.82;;;8.00;;
9789;SDS011;4934;50.852;8.098;2023-04-28T12:55:23;14.00;;;8.13;;
9789;SDS011;4934;50.852;8.098;2023-04-28T12:57:50;13.40;;;8.35;;
9789;SDS011;4934;50.852;8.098;2023-04-28T13:00:16;15.05;;;8.20;;
9789;SDS011;4934;50.852;8.098;2023-04-28T13:02:45;12.65;;;8.35;;
9789;SDS011;4934;50.852;8.098;2023-04-28T13:05:10;12.10;;;7.55;;
9789;SDS011;4934;50.852;8.098;2023-04-28T13:07:36;11.52;;;7.35;;
9789;SDS011;4934;50.852;8.098;2023-04-28T13:10:02;11.38;;;6.95;;
9789;SDS011;4934;50.852;8.098;2023-04-28T13:12:27;9.82;;;6.30;;
9789;SDS011;4934;50.852;8.098;2023-04-28T13:14:53;8.80;;;5.60;;
9789;SDS011;4934;50.852;8.098;2023-04-28T13:17:19;7.07;;;5.10;;
9789;SDS011;4934;50.852;8.098;2023-04-28T13:19:44;9.27;;;5.72;;
9789;SDS011;4934;50.852;8.098;2023-04-28T13:22:10;6.43;;;5.15;;
9789;SDS011;4934;50.852;8.098;2023-04-28T13:24:36;9.45;;;5.15;;
9789;SDS011;4934;50.852;8.098;2023-04-28T13:27:01;10.20;;;5.70;;
9789;SDS011;4934;50.852;8.098;2023-04-28T13:29:28;11.18;;;5.47;;
9789;SDS011;4934;50.852;8.098;2023-04-28T13:31:54;8.77;;;5.20;;
9789;SDS011;4934;50.852;8.098;2023-04-28T13:34:19;9.40;;;5.15;;
9789;SDS011;4934;50.852;8.098;2023-04-28T13:36:45;10.63;;;6.32;;
9789;SDS011;4934;50.852;8.098;2023-04-28T13:39:12;11.77;;;5.45;;
9789;SDS011;4934;50.852;8.098;2023-04-28T13:41:38;13.77;;;6.60;;
9789;SDS011;4934;50.852;8.098;2023-04-28T13:44:04;8.85;;;5.60;;
9789;SDS011;4934;50.852;8.098;2023-04-28T13:46:30;12.57;;;6.25;;
9789;SDS011;4934;50.852;8.098;2023-04-28T13:48:55;11.50;;;7.13;;
9789;SDS011;4934;50.852;8.098;2023-04-28T13:51:22;9.77;;;6.82;;
9789;SDS011;4934;50.852;8.098;2023-04-28T13:53:48;9.57;;;5.90;;
9789;SDS011;4934;50.852;8.098;2023-04-28T13:56:13;10.43;;;5.90;;
9789;SDS011;4934;50.852;8.098;2023-04-28T13:58:39;9.20;;;6.20;;
9789;SDS011;4934;50.852;8.098;2023-04-28T14:01:05;11.90;;;7.07;;
9789;SDS011;4934;50.852;8.098;2023-04-28T14:03:31;11.40;;;6.05;;
9789;SDS011;4934;50.852;8.098;2023-04-28T14:05:57;6.90;;;5.30;;
9789;SDS011;4934;50.852;8.098;2023-04-28T14:08:23;9.75;;;6.20;;
9789;SDS011;4934;50.852;8.098;2023-04-28T14:10:49;10.80;;;5.63;;
9789;SDS011;4934;50.852;8.098;2023-04-28T14:13:16;10.05;;;5.82;;
9789;SDS011;4934;50.852;8.098;2023-04-28T14:15:42;9.32;;;5.65;;
9789;SDS011;4934;50.852;8.098;2023-04-28T14:18:09;7.07;;;5.10;;
9789;SDS011;4934;50.852;8.098;2023-04-28T14:20:35;8.90;;;4.95;;
9789;SDS011;4934;50.852;8.098;2023-04-28T14:23:01;7.07;;;4.75;;
9789;SDS011;4934;50.852;8.098;2023-04-28T14:25:27;7.18;;;5.15;;
9789;SDS011;4934;50.852;8.098;2023-04-28T14:27:53;9.82;;;6.38;;
9789;SDS011;4934;50.852;8.098;2023-04-28T14:30:19;7.15;;;5.10;;
9789;SDS011;4934;50.852;8.098;2023-04-28T14:32:46;9.20;;;5.90;;
9789;SDS011;4934;50.852;8.098;2023-04-28T14:35:13;7.25;;;5.18;;
9789;SDS011;4934;50.852;8.098;2023-04-28T14:37:39;10.02;;;5.55;;
9789;SDS011;4934;50.852;8.098;2023-04-28T14:40:05;9.32;;;5.72;;
9789;SDS011;4934;50.852;8.098;2023-04-28T14:42:33;6.93;;;5.60;;
9789;SDS011;4934;50.852;8.098;2023-04-28T14:45:04;6.70;;;4.90;;
9789;SDS011;4934;50.852;8.098;2023-04-28T14:47:32;7.35;;;5.18;;
9789;SDS011;4934;50.852;8.098;2023-04-28T14:49:58;10.85;;;5.47;;
9789;SDS011;4934;50.852;8.098;2023-04-28T14:52:24;11.52;;;4.72;;
9789;SDS011;4934;50.852;8.098;2023-04-28T14:54:54;7.82;;;5.10;;
9789;SDS011;4934;50.852;8.098;2023-04-28T14:57:20;7.05;;;5.30;;
9789;SDS011;4934;50.852;8.098;2023-04-28T14:59:47;7.57;;;4.57;;
9789;SDS011;4934;50.852;8.098;2023-04-28T15:02:13;9.23;;;5.35;;
9789;SDS011;4934;50.852;8.098;2023-04-28T15:04:39;10.45;;;5.55;;
9789;SDS011;4934;50.852;8.098;2023-04-28T15:07:04;5.47;;;4.25;;
9789;SDS011;4934;50.852;8.098;2023-04-28T15:11:59;13.60;;;4.63;;
9789;SDS011;4934;50.852;8.098;2023-04-28T15:14:26;6.85;;;4.68;;
9789;SDS011;4934;50.852;8.098;2023-04-28T15:16:52;5.20;;;4.57;;
9789;SDS011;4934;50.852;8.098;2023-04-28T15:19:18;6.38;;;4.43;;
9789;SDS011;4934;50.852;8.098;2023-04-28T15:21:44;7.60;;;4.50;;
9789;SDS011;4934;50.852;8.098;2023-04-28T15:24:10;6.68;;;4.32;;